Time;durP1;ratioP1;P1;durP2;ratioP2;P2;SDS_P1;SDS_P2;PMS_P1;PMS_P2;Temp;Humidity;BMP_temperature;BMP_pressure;BME280_temperature;BME280_humidity;BME280_pressure;Samples;Min_cycle;Max_cycle;Signal;HPM_P1;HPM_P2
2023/12/23 10:03:30;;;;;;;;;17.50;8.00;;;;;;;;5147987;27;13343;-75
2023/12/23 10:06:01;;;;;;;;;10.00;8.00;;;;;;;;5146909;27;12239;-75
2023/12/23 10:08:27;;;;;;;;;13.75;7.50;;;;;;;;5149396;27;8798;-73
2023/12/23 10:10:53;;;;;;;;;11.50;6.25;;;;;;;;5148733;27;11494;-73
2023/12/23 10:13:18;;;;;;;;;10.75;6.50;;;;;;;;5149412;27;11395;-73
2023/12/23 10:15:44;;;;;;;;;11.50;8.50;;;;;;;;5148175;27;8911;-71
2023/12/23 10:18:12;;;;;;;;;8.50;7.50;;;;;;;;5148636;27;8825;-72
2023/12/23 10:20:38;;;;;;;;;6.50;6.00;;;;;;;;5147383;27;8884;-73
2023/12/23 10:23:03;;;;;;;;;13.25;8.50;;;;;;;;5148711;27;11411;-75
2023/12/23 10:25:32;;;;;;;;;8.50;7.50;;;;;;;;5127666;27;8851;-74
2023/12/23 10:28:01;;;;;;;;;7.50;7.50;;;;;;;;5129841;27;8832;-74
2023/12/23 10:30:28;;;;;;;;;14.50;7.25;;;;;;;;5148221;27;11403;-72
2023/12/23 10:32:54;;;;;;;;;12.00;9.25;;;;;;;;5150220;27;11301;-71
2023/12/23 10:35:19;;;;;;;;;3.25;1.25;;;;;;;;5148747;27;12129;-73
2023/12/23 10:37:44;;;;;;;;;6.50;5.75;;;;;;;;5148922;27;8787;-74
2023/12/23 10:40:13;;;;;;;;;11.25;8.50;;;;;;;;5148851;27;8806;-74
2023/12/23 10:42:39;;;;;;;;;9.00;8.00;;;;;;;;5130252;27;8842;-74
2023/12/23 10:45:06;;;;;;;;;10.25;8.50;;;;;;;;5149105;27;11579;-74
2023/12/23 10:47:32;;;;;;;;;11.25;6.75;;;;;;;;5148586;27;10983;-75
2023/12/23 10:49:59;;;;;;;;;10.75;7.50;;;;;;;;5148217;27;11655;-74
2023/12/23 10:52:25;;;;;;;;;55.00;44.00;;;;;;;;5148441;27;11013;-73
2023/12/23 10:54:51;;;;;;;;;48.50;37.75;;;;;;;;5148432;27;11663;-73
2023/12/23 10:57:16;;;;;;;;;23.50;22.00;;;;;;;;5148561;27;8786;-72
2023/12/23 10:59:42;;;;;;;;;13.75;10.50;;;;;;;;5148478;27;11420;-72
2023/12/23 11:02:12;;;;;;;;;15.50;11.00;;;;;;;;5147295;27;8825;-80
2023/12/23 11:04:38;;;;;;;;;5.75;5.00;;;;;;;;5147022;27;8773;-72
2023/12/23 11:07:04;;;;;;;;;9.00;7.00;;;;;;;;5147343;27;10983;-73
2023/12/23 11:09:31;;;;;;;;;6.25;4.25;;;;;;;;5148357;27;10799;-71
2023/12/23 11:11:56;;;;;;;;;8.00;3.00;;;;;;;;5148552;27;8862;-71
2023/12/23 11:14:21;;;;;;;;;7.50;6.25;;;;;;;;5137364;27;10694;-72
2023/12/23 11:16:49;;;;;;;;;6.25;5.25;;;;;;;;5134557;27;8820;-72
2023/12/23 11:19:15;;;;;;;;;6.50;5.25;;;;;;;;5134421;27;8808;-73
2023/12/23 11:21:40;;;;;;;;;10.25;4.50;;;;;;;;5133661;27;10698;-72
2023/12/23 11:24:24;;;;;;;;;6.25;3.50;;;;;;;;5123067;27;8776;-73
2023/12/23 11:26:53;;;;;;;;;8.00;3.50;;;;;;;;5114204;28;8876;-72
2023/12/23 11:29:21;;;;;;;;;6.25;6.25;;;;;;;;5113068;28;10485;-72
2023/12/23 11:31:46;;;;;;;;;9.50;5.00;;;;;;;;5111547;28;10767;-71
2023/12/23 11:34:20;;;;;;;;;7.00;4.00;;;;;;;;5113320;28;10454;-73
2023/12/23 11:36:46;;;;;;;;;5.75;5.00;;;;;;;;5113725;28;8792;-72
2023/12/23 11:39:13;;;;;;;;;2.75;2.00;;;;;;;;5113775;28;10633;-71
2023/12/23 11:41:39;;;;;;;;;5.75;4.50;;;;;;;;5113621;28;8830;-73
2023/12/23 11:44:05;;;;;;;;;5.00;3.00;;;;;;;;5113621;28;10379;-72
2023/12/23 11:46:31;;;;;;;;;10.75;6.25;;;;;;;;5113402;28;10458;-72
2023/12/23 11:48:56;;;;;;;;;6.00;4.50;;;;;;;;5100813;27;9527;-72
2023/12/23 11:51:22;;;;;;;;;6.00;3.50;;;;;;;;5133979;27;8766;-72
2023/12/23 11:53:47;;;;;;;;;3.75;2.50;;;;;;;;5115559;27;8843;-72
2023/12/23 11:56:13;;;;;;;;;5.50;5.00;;;;;;;;5133898;27;9519;-73
2023/12/23 11:58:39;;;;;;;;;3.75;3.00;;;;;;;;5133978;27;9510;-71
2023/12/23 12:01:04;;;;;;;;;3.00;3.00;;;;;;;;5133483;27;10170;-73
2023/12/23 12:03:29;;;;;;;;;4.00;3.00;;;;;;;;5133632;27;8778;-72
2023/12/23 12:05:56;;;;;;;;;7.25;5.75;;;;;;;;5115041;27;8817;-72
2023/12/23 12:08:25;;;;;;;;;9.75;5.25;;;;;;;;5115211;27;8813;-72
2023/12/23 12:10:50;;;;;;;;;6.00;2.00;;;;;;;;5133756;27;10657;-72
2023/12/23 12:13:16;;;;;;;;;8.75;4.00;;;;;;;;5131585;27;10322;-72
2023/12/23 12:15:41;;;;;;;;;4.75;3.00;;;;;;;;5121974;27;8804;-75
2023/12/23 12:18:07;;;;;;;;;10.50;3.50;;;;;;;;5113204;28;8772;-73
2023/12/23 12:20:32;;;;;;;;;7.25;6.00;;;;;;;;5113728;27;8809;-76
2023/12/23 12:22:57;;;;;;;;;24.25;22.75;;;;;;;;5134468;27;8813;-76
2023/12/23 12:25:25;;;;;;;;;1.00;1.00;;;;;;;;5133859;27;8774;-75
2023/12/23 12:27:50;;;;;;;;;7.00;2.00;;;;;;;;5130749;27;8916;-76
2023/12/23 12:30:15;;;;;;;;;6.00;1.00;;;;;;;;5132386;27;10301;-76
2023/12/23 12:32:43;;;;;;;;;2.50;1.75;;;;;;;;5133369;27;8818;-73
2023/12/23 12:35:09;;;;;;;;;5.00;1.75;;;;;;;;5132445;27;8775;-74
2023/12/23 12:37:35;;;;;;;;;3.00;1.00;;;;;;;;5125056;27;10302;-74
2023/12/23 12:40:00;;;;;;;;;3.00;1.25;;;;;;;;5132991;27;10679;-72
2023/12/23 12:42:25;;;;;;;;;2.50;2.00;;;;;;;;5132977;27;9515;-75
2023/12/23 12:44:52;;;;;;;;;11.00;2.50;;;;;;;;5134531;27;8786;-76
2023/12/23 12:47:22;;;;;;;;;6.00;1.00;;;;;;;;5111261;27;8819;-76
2023/12/23 12:49:47;;;;;;;;;3.00;1.00;;;;;;;;5132389;27;10578;-76
2023/12/23 12:52:12;;;;;;;;;4.50;2.00;;;;;;;;5132774;27;10360;-76
2023/12/23 12:54:38;;;;;;;;;5.00;1.75;;;;;;;;5136559;27;8857;-76
2023/12/23 12:57:04;;;;;;;;;3.00;1.75;;;;;;;;5113710;27;8801;-75
2023/12/23 12:59:29;;;;;;;;;2.00;1.75;;;;;;;;5114200;27;8786;-76
2023/12/23 13:01:54;;;;;;;;;5.50;2.00;;;;;;;;5132635;27;8828;-73
2023/12/23 13:04:19;;;;;;;;;3.00;1.75;;;;;;;;5132439;27;8797;-74
2023/12/23 13:06:45;;;;;;;;;2.00;2.00;;;;;;;;5132459;27;8889;-74
2023/12/23 13:09:10;;;;;;;;;5.75;4.75;;;;;;;;5114029;27;8813;-75
2023/12/23 13:11:36;;;;;;;;;3.75;2.00;;;;;;;;5130543;27;8838;-74
2023/12/23 13:14:01;;;;;;;;;2.00;2.00;;;;;;;;5132122;27;8897;-75
2023/12/23 13:16:26;;;;;;;;;3.25;2.00;;;;;;;;5132020;27;8869;-74
2023/12/23 13:18:53;;;;;;;;;2.00;2.00;;;;;;;;5132148;27;8789;-73
2023/12/23 13:21:18;;;;;;;;;1.50;1.00;;;;;;;;5106963;27;8825;-74
2023/12/23 13:23:43;;;;;;;;;5.00;3.25;;;;;;;;5094270;28;10877;-79
2023/12/23 13:26:09;;;;;;;;;5.25;2.50;;;;;;;;5112756;27;8795;-78
2023/12/23 13:28:34;;;;;;;;;5.50;4.00;;;;;;;;5131472;27;8775;-77
2023/12/23 13:30:59;;;;;;;;;3.25;2.50;;;;;;;;5131447;27;8878;-76
2023/12/23 13:33:25;;;;;;;;;6.25;5.00;;;;;;;;5131438;27;9566;-73
2023/12/23 13:35:50;;;;;;;;;4.75;2.00;;;;;;;;5131436;27;8842;-72
2023/12/23 13:38:15;;;;;;;;;4.50;4.50;;;;;;;;5131768;27;8783;-72
2023/12/23 13:40:40;;;;;;;;;7.50;3.00;;;;;;;;5131916;27;8771;-72
2023/12/23 13:43:06;;;;;;;;;5.75;3.50;;;;;;;;5131565;27;8911;-72
2023/12/23 13:45:31;;;;;;;;;6.50;3.75;;;;;;;;5131087;27;8795;-76
2023/12/23 13:47:56;;;;;;;;;4.75;2.00;;;;;;;;5131563;27;8792;-76
2023/12/23 13:50:22;;;;;;;;;3.25;3.00;;;;;;;;5131625;27;8778;-73
2023/12/23 13:52:47;;;;;;;;;4.25;4.25;;;;;;;;5114455;27;8829;-75
2023/12/23 13:55:12;;;;;;;;;5.75;4.00;;;;;;;;5110562;27;8805;-74
2023/12/23 13:57:37;;;;;;;;;3.50;1.00;;;;;;;;5112653;27;8840;-75
2023/12/23 14:00:04;;;;;;;;;6.00;4.00;;;;;;;;5131697;27;8904;-75
2023/12/23 14:02:29;;;;;;;;;10.50;5.50;;;;;;;;5131636;27;9550;-76
2023/12/23 14:04:54;;;;;;;;;6.00;5.25;;;;;;;;5131154;27;11121;-74
2023/12/23 14:07:20;;;;;;;;;5.00;5.00;;;;;;;;5131370;27;8832;-73
2023/12/23 14:09:45;;;;;;;;;4.50;3.25;;;;;;;;5131378;27;8808;-73
2023/12/23 14:12:10;;;;;;;;;4.25;2.00;;;;;;;;5131452;27;8840;-73
2023/12/23 14:14:36;;;;;;;;;8.50;5.75;;;;;;;;5131233;27;9507;-74
2023/12/23 14:17:01;;;;;;;;;7.75;4.00;;;;;;;;5112775;27;8802;-74
2023/12/23 14:19:26;;;;;;;;;13.50;6.75;;;;;;;;5112737;27;8859;-74
2023/12/23 14:21:51;;;;;;;;;4.00;3.25;;;;;;;;5130909;27;8830;-74
2023/12/23 14:24:17;;;;;;;;;7.75;5.50;;;;;;;;5130813;27;8913;-75
2023/12/23 14:26:42;;;;;;;;;7.00;4.50;;;;;;;;5131273;27;8785;-74
2023/12/23 14:29:07;;;;;;;;;8.00;7.00;;;;;;;;5131380;27;9484;-74
2023/12/23 14:31:33;;;;;;;;;4.50;4.50;;;;;;;;5130595;27;8758;-74
2023/12/23 14:33:58;;;;;;;;;6.00;5.00;;;;;;;;5131754;27;8789;-74
2023/12/23 14:36:23;;;;;;;;;10.50;7.00;;;;;;;;5132478;27;8878;-74
2023/12/23 14:38:49;;;;;;;;;7.25;5.00;;;;;;;;5131099;27;9518;-73
2023/12/23 14:41:14;;;;;;;;;12.00;6.50;;;;;;;;5130787;27;8758;-74
2023/12/23 14:43:39;;;;;;;;;8.75;4.00;;;;;;;;5131179;27;8770;-73
2023/12/23 14:46:05;;;;;;;;;9.00;8.75;;;;;;;;5130786;27;9519;-74
2023/12/23 14:48:30;;;;;;;;;6.50;4.50;;;;;;;;5131962;27;8866;-73
2023/12/23 14:50:55;;;;;;;;;9.50;4.25;;;;;;;;5134407;27;8832;-73
2023/12/23 14:53:21;;;;;;;;;11.25;9.25;;;;;;;;5134878;27;8867;-73
2023/12/23 14:55:47;;;;;;;;;8.25;8.00;;;;;;;;5134730;27;8804;-74
2023/12/23 14:58:12;;;;;;;;;12.00;9.00;;;;;;;;5134776;27;8774;-74
2023/12/23 15:00:38;;;;;;;;;12.25;8.00;;;;;;;;5134736;27;11334;-72
2023/12/23 15:03:04;;;;;;;;;7.50;6.50;;;;;;;;5134519;27;8810;-72
2023/12/23 15:05:29;;;;;;;;;10.25;10.00;;;;;;;;5134144;27;11377;-72
2023/12/23 15:07:54;;;;;;;;;9.50;9.50;;;;;;;;5134945;27;8859;-74
2023/12/23 15:10:19;;;;;;;;;10.75;8.00;;;;;;;;5133314;27;9523;-76
2023/12/23 15:12:45;;;;;;;;;8.25;6.00;;;;;;;;5134501;27;9841;-72
2023/12/23 15:15:10;;;;;;;;;9.00;7.00;;;;;;;;5135418;27;8994;-73
2023/12/23 15:17:35;;;;;;;;;9.25;8.25;;;;;;;;5116456;27;8789;-71
2023/12/23 15:20:01;;;;;;;;;9.00;8.00;;;;;;;;5133672;27;8786;-79
2023/12/23 15:22:26;;;;;;;;;14.50;13.00;;;;;;;;5132499;27;8817;-74
2023/12/23 15:24:53;;;;;;;;;9.25;7.75;;;;;;;;5114032;27;9507;-77
2023/12/23 15:27:18;;;;;;;;;6.25;5.50;;;;;;;;5114615;27;8813;-72
2023/12/23 15:29:43;;;;;;;;;8.00;7.00;;;;;;;;5132123;27;10939;-73
2023/12/23 15:32:08;;;;;;;;;9.25;9.25;;;;;;;;5132385;27;8777;-73
2023/12/23 15:34:34;;;;;;;;;11.25;9.25;;;;;;;;5132506;27;8892;-71
2023/12/23 15:36:59;;;;;;;;;13.75;11.25;;;;;;;;5133779;27;8792;-72
2023/12/23 15:39:24;;;;;;;;;10.75;8.50;;;;;;;;5134269;27;8778;-72
2023/12/23 15:41:49;;;;;;;;;12.75;9.00;;;;;;;;5134117;27;8806;-71
2023/12/23 15:44:15;;;;;;;;;30.00;26.00;;;;;;;;5134062;27;8853;-71
2023/12/23 15:46:40;;;;;;;;;13.00;13.00;;;;;;;;5134051;27;8778;-71
2023/12/23 15:49:05;;;;;;;;;10.00;9.25;;;;;;;;5134285;27;8933;-71
2023/12/23 15:51:31;;;;;;;;;10.75;9.50;;;;;;;;5134112;27;8778;-70
2023/12/23 15:53:56;;;;;;;;;15.50;13.00;;;;;;;;5133935;27;9602;-70
2023/12/23 15:56:21;;;;;;;;;14.50;12.75;;;;;;;;5133767;27;8766;-71
2023/12/23 15:58:46;;;;;;;;;13.00;13.00;;;;;;;;5133814;27;8793;-70
2023/12/23 16:01:12;;;;;;;;;14.50;12.25;;;;;;;;5134674;27;8786;-69
2023/12/23 16:03:38;;;;;;;;;19.00;15.00;;;;;;;;5133998;27;8805;-72
2023/12/23 16:06:03;;;;;;;;;16.50;14.00;;;;;;;;5133626;27;8781;-69
2023/12/23 16:08:28;;;;;;;;;17.00;13.75;;;;;;;;5133863;27;8778;-72
2023/12/23 16:10:54;;;;;;;;;19.75;15.00;;;;;;;;5133677;27;8801;-70
2023/12/23 16:13:19;;;;;;;;;14.25;9.75;;;;;;;;5133522;27;9519;-69
2023/12/23 16:15:45;;;;;;;;;10.25;9.00;;;;;;;;5133437;27;8782;-69
2023/12/23 16:18:10;;;;;;;;;8.75;6.75;;;;;;;;5133310;27;8820;-69
2023/12/23 16:20:35;;;;;;;;;12.75;9.00;;;;;;;;5133419;27;8778;-70
2023/12/23 16:23:00;;;;;;;;;13.75;12.00;;;;;;;;5133362;27;8972;-70
2023/12/23 16:25:26;;;;;;;;;7.00;1.50;;;;;;;;5133352;27;8774;-70
2023/12/23 16:27:51;;;;;;;;;14.75;9.50;;;;;;;;5133784;27;8805;-71
2023/12/23 16:30:17;;;;;;;;;18.25;13.75;;;;;;;;5134712;27;8821;-71
2023/12/23 16:32:42;;;;;;;;;14.00;9.75;;;;;;;;5134590;27;8795;-70
2023/12/23 16:35:08;;;;;;;;;22.00;18.00;;;;;;;;5131758;27;8790;-73
2023/12/23 16:37:34;;;;;;;;;33.50;24.75;;;;;;;;5131877;27;8859;-77
2023/12/23 16:40:03;;;;;;;;;23.75;18.25;;;;;;;;5132857;27;11457;-74
2023/12/23 16:42:28;;;;;;;;;28.50;20.00;;;;;;;;5132811;27;8818;-73
2023/12/23 16:44:54;;;;;;;;;24.00;18.25;;;;;;;;5132707;27;11448;-73
2023/12/23 16:47:20;;;;;;;;;14.50;11.25;;;;;;;;5132927;27;8778;-74
2023/12/23 16:49:45;;;;;;;;;16.25;14.25;;;;;;;;5132681;27;11402;-72
2023/12/23 16:52:11;;;;;;;;;18.50;14.75;;;;;;;;5131437;27;8849;-73
2023/12/23 16:54:36;;;;;;;;;20.25;14.50;;;;;;;;5132834;27;8774;-73
2023/12/23 16:57:01;;;;;;;;;16.00;12.50;;;;;;;;5132675;27;8882;-73
2023/12/23 16:59:27;;;;;;;;;12.75;12.00;;;;;;;;5132625;27;8771;-72
2023/12/23 17:01:52;;;;;;;;;18.00;15.00;;;;;;;;5134664;27;8806;-73
2023/12/23 17:04:17;;;;;;;;;17.00;14.50;;;;;;;;5132548;27;9516;-72
2023/12/23 17:06:43;;;;;;;;;19.25;15.75;;;;;;;;5132479;27;8866;-74
2023/12/23 17:09:09;;;;;;;;;14.75;14.75;;;;;;;;5132431;27;8797;-78
2023/12/23 17:11:34;;;;;;;;;20.75;13.75;;;;;;;;5132091;27;8786;-73
2023/12/23 17:13:59;;;;;;;;;16.25;15.00;;;;;;;;5132357;27;11591;-85
2023/12/23 17:16:25;;;;;;;;;13.25;13.25;;;;;;;;5132243;27;8759;-75
2023/12/23 17:18:50;;;;;;;;;15.00;13.75;;;;;;;;5132406;27;8899;-76
2023/12/23 17:21:15;;;;;;;;;18.75;16.25;;;;;;;;5132324;27;9524;-81
2023/12/23 17:23:40;;;;;;;;;35.00;25.75;;;;;;;;5130435;27;8865;-80
2023/12/23 17:26:06;;;;;;;;;20.25;17.75;;;;;;;;5113625;27;8893;-78
2023/12/23 17:28:31;;;;;;;;;26.50;21.50;;;;;;;;5132709;27;8793;-76
2023/12/23 17:30:56;;;;;;;;;19.00;15.00;;;;;;;;5131328;27;8790;-77
2023/12/23 17:33:21;;;;;;;;;24.25;20.75;;;;;;;;5131445;27;8917;-77
2023/12/23 17:35:47;;;;;;;;;20.75;18.75;;;;;;;;5131892;27;8795;-73
2023/12/23 17:38:12;;;;;;;;;17.75;16.00;;;;;;;;5132465;27;8817;-77
2023/12/23 17:40:38;;;;;;;;;18.25;15.00;;;;;;;;5131856;27;8806;-81
2023/12/23 17:43:06;;;;;;;;;21.25;15.00;;;;;;;;5132492;27;8826;-77
2023/12/23 17:45:31;;;;;;;;;20.50;16.75;;;;;;;;5132548;27;8883;-77
2023/12/23 17:47:57;;;;;;;;;19.50;17.50;;;;;;;;4996420;27;12118;-77
2023/12/23 17:50:23;;;;;;;;;16.25;13.25;;;;;;;;5034466;28;11143;-80
2023/12/23 17:52:48;;;;;;;;;22.50;18.00;;;;;;;;5091943;28;8813;-76
2023/12/23 17:55:14;;;;;;;;;25.75;20.50;;;;;;;;5090792;28;8865;-76
2023/12/23 17:57:39;;;;;;;;;14.50;14.50;;;;;;;;5091167;28;8824;-75
2023/12/23 18:00:04;;;;;;;;;23.00;20.75;;;;;;;;5090179;28;8803;-75
2023/12/23 18:02:30;;;;;;;;;23.25;18.25;;;;;;;;5090159;28;8832;-75
2023/12/23 18:04:55;;;;;;;;;22.50;18.75;;;;;;;;5089741;28;8891;-75
2023/12/23 18:07:21;;;;;;;;;21.50;20.50;;;;;;;;5090164;28;8805;-73
2023/12/23 18:09:46;;;;;;;;;18.75;18.25;;;;;;;;5090629;28;8777;-73
2023/12/23 18:12:11;;;;;;;;;17.50;16.50;;;;;;;;5088627;28;9607;-74
2023/12/23 18:14:37;;;;;;;;;21.25;18.25;;;;;;;;5090482;28;8782;-73
2023/12/23 18:17:03;;;;;;;;;17.75;12.75;;;;;;;;5092957;28;8900;-74
